sensor_id;sensor_type;location;lat;lon;timestamp;pressure;altitude;pressure_sealevel;temperature;humidity
45467;BME280;31212;49.734;8.490;2023-02-18T00:00:21;101427.41;;;11.66;90.32
45467;BME280;31212;49.734;8.490;2023-02-18T00:02:49;101423.91;;;11.66;90.74
45467;BME280;31212;49.734;8.490;2023-02-18T00:05:16;101425.63;;;11.64;90.56
45467;BME280;31212;49.734;8.490;2023-02-18T00:07:42;101426.44;;;11.59;90.51
45467;BME280;31212;49.734;8.490;2023-02-18T00:10:13;101435.06;;;11.55;91.05
45467;BME280;31212;49.734;8.490;2023-02-18T00:12:41;101432.63;;;11.66;90.68
45467;BME280;31212;49.734;8.490;2023-02-18T00:15:09;101432.72;;;11.74;90.16
45467;BME280;31212;49.734;8.490;2023-02-18T00:17:35;101418.00;;;11.74;90.14
45467;BME280;31212;49.734;8.490;2023-02-18T00:20:02;101410.97;;;11.69;89.78
45467;BME280;31212;49.734;8.490;2023-02-18T00:22:29;101418.72;;;11.67;90.65
45467;BME280;31212;49.734;8.490;2023-02-18T00:24:55;101426.53;;;11.66;90.45
45467;BME280;31212;49.734;8.490;2023-02-18T00:27:22;101433.38;;;11.60;90.75
45467;BME280;31212;49.734;8.490;2023-02-18T00:29:50;101435.91;;;11.54;91.44
45467;BME280;31212;49.734;8.490;2023-02-18T00:32:16;101447.09;;;11.49;91.18
45467;BME280;31212;49.734;8.490;2023-02-18T00:34:43;101450.59;;;11.52;92.06
45467;BME280;31212;49.734;8.490;2023-02-18T00:37:09;101446.22;;;11.50;92.54
45467;BME280;31212;49.734;8.490;2023-02-18T00:39:36;101460.09;;;11.50;92.79
45467;BME280;31212;49.734;8.490;2023-02-18T00:42:02;101458.16;;;11.38;92.72
45467;BME280;31212;49.734;8.490;2023-02-18T00:44:29;101467.59;;;11.32;93.48
45467;BME280;31212;49.734;8.490;2023-02-18T00:46:57;101458.06;;;11.32;94.36
45467;BME280;31212;49.734;8.490;2023-02-18T00:49:24;101461.44;;;11.28;94.44
45467;BME280;31212;49.734;8.490;2023-02-18T00:51:50;101460.59;;;11.27;94.64
45467;BME280;31212;49.734;8.490;2023-02-18T00:54:17;101464.00;;;11.25;95.04
45467;BME280;31212;49.734;8.490;2023-02-18T00:56:43;101455.22;;;11.18;96.18
45467;BME280;31212;49.734;8.490;2023-02-18T00:59:10;101452.59;;;11.17;96.72
45467;BME280;31212;49.734;8.490;2023-02-18T01:01:36;101452.63;;;11.18;95.81
45467;BME280;31212;49.734;8.490;2023-02-18T01:04:04;101457.00;;;11.21;95.87
45467;BME280;31212;49.734;8.490;2023-02-18T01:06:30;101457.94;;;11.24;95.46
45467;BME280;31212;49.734;8.490;2023-02-18T01:08:57;101461.38;;;11.22;95.65
45467;BME280;31212;49.734;8.490;2023-02-18T01:11:24;101469.19;;;11.23;95.92
45467;BME280;31212;49.734;8.490;2023-02-18T01:13:51;101472.59;;;11.21;96.55
45467;BME280;31212;49.734;8.490;2023-02-18T01:16:17;101474.34;;;11.20;96.72
45467;BME280;31212;49.734;8.490;2023-02-18T01:18:45;101466.47;;;11.17;96.69
45467;BME280;31212;49.734;8.490;2023-02-18T01:21:13;101472.56;;;11.18;96.80
45467;BME280;31212;49.734;8.490;2023-02-18T01:23:41;101458.56;;;11.09;96.55
45467;BME280;31212;49.734;8.490;2023-02-18T01:26:09;101457.66;;;11.09;96.90
45467;BME280;31212;49.734;8.490;2023-02-18T01:28:36;101451.56;;;11.05;97.31
45467;BME280;31212;49.734;8.490;2023-02-18T01:31:06;101458.56;;;11.11;97.26
45467;BME280;31212;49.734;8.490;2023-02-18T01:33:33;101449.88;;;11.10;97.46
45467;BME280;31212;49.734;8.490;2023-02-18T01:36:00;101450.78;;;11.11;96.86
45467;BME280;31212;49.734;8.490;2023-02-18T01:38:27;101449.03;;;11.11;97.21
45467;BME280;31212;49.734;8.490;2023-02-18T01:40:54;101450.75;;;11.09;97.68
45467;BME280;31212;49.734;8.490;2023-02-18T01:43:21;101439.47;;;11.09;97.39
45467;BME280;31212;49.734;8.490;2023-02-18T01:46:09;101446.31;;;11.04;97.98
45467;BME280;31212;49.734;8.490;2023-02-18T01:48:40;101449.03;;;11.10;97.57
45467;BME280;31212;49.734;8.490;2023-02-18T01:51:10;101442.00;;;11.04;97.15
45467;BME280;31212;49.734;8.490;2023-02-18T01:53:44;101449.69;;;11.00;97.84
45467;BME280;31212;49.734;8.490;2023-02-18T01:56:23;101441.03;;;10.99;97.93
45467;BME280;31212;49.734;8.490;2023-02-18T01:58:53;101433.25;;;10.99;97.59
45467;BME280;31212;49.734;8.490;2023-02-18T02:01:20;101444.53;;;11.01;98.59
45467;BME280;31212;49.734;8.490;2023-02-18T02:03:47;101437.56;;;10.99;98.63
45467;BME280;31212;49.734;8.490;2023-02-18T02:06:18;101428.94;;;11.01;97.65
45467;BME280;31212;49.734;8.490;2023-02-18T02:08:53;101423.69;;;10.98;98.08
45467;BME280;31212;49.734;8.490;2023-02-18T02:11:39;101421.03;;;10.93;98.52
45467;BME280;31212;49.734;8.490;2023-02-18T02:14:15;101415.69;;;10.87;99.00
45467;BME280;31212;49.734;8.490;2023-02-18T02:16:51;101404.41;;;10.84;98.79
45467;BME280;31212;49.734;8.490;2023-02-18T02:19:44;101400.09;;;10.86;98.45
45467;BME280;31212;49.734;8.490;2023-02-18T02:25:35;101394.88;;;10.84;98.78
45467;BME280;31212;49.734;8.490;2023-02-18T02:28:34;101395.66;;;10.79;99.04
45467;BME280;31212;49.734;8.490;2023-02-18T02:31:36;101397.47;;;10.84;98.93
45467;BME280;31212;49.734;8.490;2023-02-18T02:34:28;101393.16;;;10.86;97.82
45467;BME280;31212;49.734;8.490;2023-02-18T02:37:01;101391.47;;;10.88;98.37
45467;BME280;31212;49.734;8.490;2023-02-18T02:39:38;101379.38;;;10.90;98.33
45467;BME280;31212;49.734;8.490;2023-02-18T02:42:09;101359.50;;;10.92;96.69
45467;BME280;31212;49.734;8.490;2023-02-18T02:44:46;101361.25;;;10.92;97.10
45467;BME280;31212;49.734;8.490;2023-02-18T02:47:20;101364.78;;;10.97;96.50
45467;BME280;31212;49.734;8.490;2023-02-18T02:49:52;101347.47;;;10.98;95.92
45467;BME280;31212;49.734;8.490;2023-02-18T02:52:27;101351.03;;;11.03;95.45
45467;BME280;31212;49.734;8.490;2023-02-18T02:54:56;101336.34;;;11.06;94.40
45467;BME280;31212;49.734;8.490;2023-02-18T02:57:45;101326.03;;;11.09;93.67
45467;BME280;31212;49.734;8.490;2023-02-18T03:00:19;101313.91;;;11.11;93.34
45467;BME280;31212;49.734;8.490;2023-02-18T03:03:04;101302.66;;;11.11;92.71
45467;BME280;31212;49.734;8.490;2023-02-18T03:05:45;101291.44;;;11.15;91.98
45467;BME280;31212;49.734;8.490;2023-02-18T03:08:31;101283.66;;;11.15;91.23
45467;BME280;31212;49.734;8.490;2023-02-18T03:11:03;101275.88;;;11.17;90.82
45467;BME280;31212;49.734;8.490;2023-02-18T03:13:53;101262.91;;;11.20;89.92
45467;BME280;31212;49.734;8.490;2023-02-18T03:16:30;101252.59;;;11.23;89.30
45467;BME280;31212;49.734;8.490;2023-02-18T03:19:05;101239.53;;;11.20;88.70
45467;BME280;31212;49.734;8.490;2023-02-18T03:21:38;101227.41;;;11.20;88.22
45467;BME280;31212;49.734;8.490;2023-02-18T03:24:11;101228.38;;;11.27;87.93
45467;BME280;31212;49.734;8.490;2023-02-18T03:26:42;101228.34;;;11.25;88.30
45467;BME280;31212;49.734;8.490;2023-02-18T03:29:13;101218.81;;;11.24;87.89
45467;BME280;31212;49.734;8.490;2023-02-18T03:31:42;101205.81;;;11.23;87.65
45467;BME280;31212;49.734;8.490;2023-02-18T03:34:13;101209.31;;;11.30;86.99
45467;BME280;31212;49.734;8.490;2023-02-18T03:36:43;101205.81;;;11.24;87.14
45467;BME280;31212;49.734;8.490;2023-02-18T03:39:14;101204.97;;;11.27;87.17
45467;BME280;31212;49.734;8.490;2023-02-18T03:41:42;101204.06;;;11.25;86.74
45467;BME280;31212;49.734;8.490;2023-02-18T03:44:10;101198.03;;;11.24;86.66
45467;BME280;31212;49.734;8.490;2023-02-18T03:46:39;101207.63;;;11.32;86.52
45467;BME280;31212;49.734;8.490;2023-02-18T03:49:08;101206.72;;;11.30;86.44
45467;BME280;31212;49.734;8.490;2023-02-18T03:51:35;101205.84;;;11.27;86.80
45467;BME280;31212;49.734;8.490;2023-02-18T03:54:03;101205.84;;;11.27;86.32
45467;BME280;31212;49.734;8.490;2023-02-18T03:56:29;101208.44;;;11.26;86.45
45467;BME280;31212;49.734;8.490;2023-02-18T03:58:56;101222.28;;;11.26;87.07
45467;BME280;31212;49.734;8.490;2023-02-18T04:01:22;101228.34;;;11.25;86.85
45467;BME280;31212;49.734;8.490;2023-02-18T04:03:49;101235.16;;;11.19;87.77
45467;BME280;31212;49.734;8.490;2023-02-18T04:06:16;101217.88;;;11.19;86.80
45467;BME280;31212;49.734;8.490;2023-02-18T04:08:43;101207.44;;;11.16;86.60
45467;BME280;31212;49.734;8.490;2023-02-18T04:11:10;101206.66;;;11.23;86.83
45467;BME280;31212;49.734;8.490;2023-02-18T04:13:37;101194.50;;;11.22;85.98
45467;BME280;31212;49.734;8.490;2023-02-18T04:16:04;101184.13;;;11.25;86.25
45467;BME280;31212;49.734;8.490;2023-02-18T04:18:31;101160.78;;;11.27;85.17
45467;BME280;31212;49.734;8.490;2023-02-18T04:20:57;101146.91;;;11.26;84.37
45467;BME280;31212;49.734;8.490;2023-02-18T04:23:24;101133.94;;;11.28;84.02
45467;BME280;31212;49.734;8.490;2023-02-18T04:25:50;101114.03;;;11.28;83.62
45467;BME280;31212;49.734;8.490;2023-02-18T04:28:18;101094.09;;;11.29;83.55
45467;BME280;31212;49.734;8.490;2023-02-18T04:30:45;101088.88;;;11.26;82.66
45467;BME280;31212;49.734;8.490;2023-02-18T04:33:13;101068.09;;;11.27;82.46
45467;BME280;31212;49.734;8.490;2023-02-18T04:35:40;101055.91;;;11.22;82.35
45467;BME280;31212;49.734;8.490;2023-02-18T04:38:06;101061.09;;;11.23;81.96
45467;BME280;31212;49.734;8.490;2023-02-18T04:40:33;101048.09;;;11.20;81.48
45467;BME280;31212;49.734;8.490;2023-02-18T04:43:00;101046.31;;;11.16;81.25
45467;BME280;31212;49.734;8.490;2023-02-18T04:45:28;101038.44;;;11.11;81.86
45467;BME280;31212;49.734;8.490;2023-02-18T04:47:55;101017.75;;;11.18;81.34
45467;BME280;31212;49.734;8.490;2023-02-18T04:50:21;101001.22;;;11.11;80.74
45467;BME280;31212;49.734;8.490;2023-02-18T04:52:48;100998.53;;;11.05;80.66
45467;BME280;31212;49.734;8.490;2023-02-18T04:55:15;100988.13;;;11.05;80.41
45467;BME280;31212;49.734;8.490;2023-02-18T04:57:42;100987.22;;;11.00;80.07
45467;BME280;31212;49.734;8.490;2023-02-18T05:00:11;100997.59;;;10.97;79.65
45467;BME280;31212;49.734;8.490;2023-02-18T05:02:40;101018.28;;;10.90;80.19
45467;BME280;31212;49.734;8.490;2023-02-18T05:05:07;101013.16;;;10.95;80.16
45467;BME280;31212;49.734;8.490;2023-02-18T05:07:34;101011.41;;;10.96;80.41
45467;BME280;31212;49.734;8.490;2023-02-18T05:10:00;101002.78;;;10.98;80.35
45467;BME280;31212;49.734;8.490;2023-02-18T05:12:27;100999.34;;;10.98;79.63
45467;BME280;31212;49.734;8.490;2023-02-18T05:14:53;100983.75;;;10.99;79.58
45467;BME280;31212;49.734;8.490;2023-02-18T05:17:19;100974.22;;;10.98;78.82
45467;BME280;31212;49.734;8.490;2023-02-18T05:19:47;100952.63;;;11.04;79.01
45467;BME280;31212;49.734;8.490;2023-02-18T05:22:14;100941.38;;;11.06;78.17
45467;BME280;31212;49.734;8.490;2023-02-18T05:24:40;100915.47;;;11.14;78.01
45467;BME280;31212;49.734;8.490;2023-02-18T05:27:07;100903.34;;;11.13;77.82
45467;BME280;31212;49.734;8.490;2023-02-18T05:29:33;100902.47;;;11.09;77.53
45467;BME280;31212;49.734;8.490;2023-02-18T05:31:59;100908.50;;;11.05;78.08
45467;BME280;31212;49.734;8.490;2023-02-18T05:34:26;100916.22;;;11.02;77.71
45467;BME280;31212;49.734;8.490;2023-02-18T05:36:54;100905.00;;;11.06;77.73
45467;BME280;31212;49.734;8.490;2023-02-18T05:39:20;100870.38;;;11.07;76.60
45467;BME280;31212;49.734;8.490;2023-02-18T05:41:47;100788.16;;;11.17;74.90
45467;BME280;31212;49.734;8.490;2023-02-18T05:44:13;100754.44;;;11.22;74.56
45467;BME280;31212;49.734;8.490;2023-02-18T05:46:55;100698.16;;;11.30;73.35
45467;BME280;31212;49.734;8.490;2023-02-18T05:49:24;100654.88;;;11.38;71.93
45467;BME280;31212;49.734;8.490;2023-02-18T05:51:50;100653.13;;;11.33;72.18
45467;BME280;31212;49.734;8.490;2023-02-18T05:54:18;100648.78;;;11.30;72.26
45467;BME280;31212;49.734;8.490;2023-02-18T05:56:45;100644.44;;;11.26;71.65
45467;BME280;31212;49.734;8.490;2023-02-18T05:59:12;100667.81;;;11.23;71.86
45467;BME280;31212;49.734;8.490;2023-02-18T06:01:38;100680.75;;;11.17;72.71
45467;BME280;31212;49.734;8.490;2023-02-18T06:04:05;100700.69;;;11.16;72.58
45467;BME280;31212;49.734;8.490;2023-02-18T06:06:32;100704.16;;;11.17;72.69
45467;BME280;31212;49.734;8.490;2023-02-18T06:08:59;100725.84;;;11.20;72.65
45467;BME280;31212;49.734;8.490;2023-02-18T06:11:27;100768.25;;;11.18;73.07
45467;BME280;31212;49.734;8.490;2023-02-18T06:13:53;100770.81;;;11.15;73.62
45467;BME280;31212;49.734;8.490;2023-02-18T06:16:20;100773.41;;;11.15;73.24
45467;BME280;31212;49.734;8.490;2023-02-18T06:18:46;100795.88;;;11.06;74.32
45467;BME280;31212;49.734;8.490;2023-02-18T06:21:13;100767.34;;;11.09;73.61
45467;BME280;31212;49.734;8.490;2023-02-18T06:23:39;100778.59;;;11.11;73.24
45467;BME280;31212;49.734;8.490;2023-02-18T06:26:06;100789.84;;;11.09;74.02
45467;BME280;31212;49.734;8.490;2023-02-18T06:28:34;100798.47;;;11.08;73.57
45467;BME280;31212;49.734;8.490;2023-02-18T06:31:01;100818.41;;;11.03;74.44
45467;BME280;31212;49.734;8.490;2023-02-18T06:33:27;100809.69;;;10.98;74.62
45467;BME280;31212;49.734;8.490;2023-02-18T06:35:55;100821.84;;;11.00;74.41
45467;BME280;31212;49.734;8.490;2023-02-18T06:38:22;100840.84;;;10.96;75.03
45467;BME280;31212;49.734;8.490;2023-02-18T06:40:49;100854.63;;;10.89;75.39
45467;BME280;31212;49.734;8.490;2023-02-18T06:43:16;100862.50;;;10.97;75.40
45467;BME280;31212;49.734;8.490;2023-02-18T06:45:44;100849.47;;;10.92;75.03
45467;BME280;31212;49.734;8.490;2023-02-18T06:48:11;100846.06;;;10.98;74.92
45467;BME280;31212;49.734;8.490;2023-02-18T06:50:39;100833.97;;;11.03;74.12
45467;BME280;31212;49.734;8.490;2023-02-18T06:53:05;100827.91;;;11.04;73.78
45467;BME280;31212;49.734;8.490;2023-02-18T06:55:32;100840.88;;;11.02;74.78
45467;BME280;31212;49.734;8.490;2023-02-18T06:57:58;100829.63;;;11.03;74.29
45467;BME280;31212;49.734;8.490;2023-02-18T07:00:25;100835.69;;;11.02;74.42
45467;BME280;31212;49.734;8.490;2023-02-18T07:02:53;100831.34;;;11.01;74.54
45467;BME280;31212;49.734;8.490;2023-02-18T07:05:19;100830.47;;;11.01;74.56
45467;BME280;31212;49.734;8.490;2023-02-18T07:07:45;100823.53;;;10.98;75.10
45467;BME280;31212;49.734;8.490;2023-02-18T07:10:12;100828.72;;;11.00;74.57
45467;BME280;31212;49.734;8.490;2023-02-18T07:12:38;100825.28;;;10.99;74.48
45467;BME280;31212;49.734;8.490;2023-02-18T07:15:05;100833.09;;;11.04;74.42
45467;BME280;31212;49.734;8.490;2023-02-18T07:17:32;100831.38;;;11.04;74.67
45467;BME280;31212;49.734;8.490;2023-02-18T07:19:59;100819.28;;;11.08;74.57
45467;BME280;31212;49.734;8.490;2023-02-18T07:22:26;100787.22;;;11.06;74.14
45467;BME280;31212;49.734;8.490;2023-02-18T07:24:53;100778.59;;;11.07;73.80
45467;BME280;31212;49.734;8.490;2023-02-18T07:27:20;100796.78;;;11.07;73.66
45467;BME280;31212;49.734;8.490;2023-02-18T07:29:47;100796.78;;;11.10;74.26
45467;BME280;31212;49.734;8.490;2023-02-18T07:32:15;100795.94;;;11.14;74.31
45467;BME280;31212;49.734;8.490;2023-02-18T07:34:43;100795.94;;;11.13;74.50
45467;BME280;31212;49.734;8.490;2023-02-18T07:37:10;100801.09;;;11.08;74.40
45467;BME280;31212;49.734;8.490;2023-02-18T07:39:39;100814.97;;;11.10;74.36
45467;BME280;31212;49.734;8.490;2023-02-18T07:42:06;100825.38;;;11.11;74.66
45467;BME280;31212;49.734;8.490;2023-02-18T07:44:32;100818.50;;;11.20;74.19
45467;BME280;31212;49.734;8.490;2023-02-18T07:46:59;100813.31;;;11.20;74.22
45467;BME280;31212;49.734;8.490;2023-02-18T07:49:26;100797.69;;;11.15;74.22
45467;BME280;31212;49.734;8.490;2023-02-18T07:51:52;100780.41;;;11.25;73.35
45467;BME280;31212;49.734;8.490;2023-02-18T07:54:20;100759.63;;;11.26;72.79
45467;BME280;31212;49.734;8.490;2023-02-18T07:56:47;100750.09;;;11.25;72.99
45467;BME280;31212;49.734;8.490;2023-02-18T07:59:13;100757.03;;;11.30;73.34
45467;BME280;31212;49.734;8.490;2023-02-18T08:01:40;100752.72;;;11.28;73.26
45467;BME280;31212;49.734;8.490;2023-02-18T08:04:07;100751.84;;;11.28;73.12
45467;BME280;31212;49.734;8.490;2023-02-18T08:06:37;100757.94;;;11.35;73.58
45467;BME280;31212;49.734;8.490;2023-02-18T08:09:05;100741.50;;;11.37;73.09
45467;BME280;31212;49.734;8.490;2023-02-18T08:11:33;100732.91;;;11.48;72.81
45467;BME280;31212;49.734;8.490;2023-02-18T08:14:00;100703.44;;;11.55;72.22
45467;BME280;31212;49.734;8.490;2023-02-18T08:16:27;100688.78;;;11.66;71.42
45467;BME280;31212;49.734;8.490;2023-02-18T08:18:53;100646.28;;;11.66;71.35
45467;BME280;31212;49.734;8.490;2023-02-18T08:21:22;100648.03;;;11.62;71.13
45467;BME280;31212;49.734;8.490;2023-02-18T08:23:52;100631.53;;;11.65;70.04
45467;BME280;31212;49.734;8.490;2023-02-18T08:26:19;100630.66;;;11.67;70.76
45467;BME280;31212;49.734;8.490;2023-02-18T08:28:47;100583.00;;;11.71;69.99
45467;BME280;31212;49.734;8.490;2023-02-18T08:31:18;100547.47;;;11.69;69.34
45467;BME280;31212;49.734;8.490;2023-02-18T08:33:46;100518.00;;;11.67;69.01
45467;BME280;31212;49.734;8.490;2023-02-18T08:36:12;100531.84;;;11.73;68.56
45467;BME280;31212;49.734;8.490;2023-02-18T08:38:39;100501.50;;;11.74;68.30
45467;BME280;31212;49.734;8.490;2023-02-18T08:41:07;100487.66;;;11.73;68.76
45467;BME280;31212;49.734;8.490;2023-02-18T08:43:34;100484.19;;;11.74;68.13
45467;BME280;31212;49.734;8.490;2023-02-18T08:46:02;100472.03;;;11.81;67.71
45467;BME280;31212;49.734;8.490;2023-02-18T08:48:29;100493.72;;;11.89;67.49
45467;BME280;31212;49.734;8.490;2023-02-18T08:50:56;100472.03;;;11.93;67.38
45467;BME280;31212;49.734;8.490;2023-02-18T08:53:23;100465.94;;;11.91;67.39
45467;BME280;31212;49.734;8.490;2023-02-18T08:55:49;100481.59;;;11.98;67.56
45467;BME280;31212;49.734;8.490;2023-02-18T08:58:16;100459.03;;;11.92;67.19
45467;BME280;31212;49.734;8.490;2023-02-18T09:00:43;100483.28;;;11.92;67.30
45467;BME280;31212;49.734;8.490;2023-02-18T09:03:13;100476.38;;;11.99;67.53
45467;BME280;31212;49.734;8.490;2023-02-18T09:05:39;100502.41;;;12.07;67.64
45467;BME280;31212;49.734;8.490;2023-02-18T09:08:06;100491.97;;;12.16;67.02
45467;BME280;31212;49.734;8.490;2023-02-18T09:10:33;100472.00;;;12.17;66.96
45467;BME280;31212;49.734;8.490;2023-02-18T09:13:00;100479.78;;;12.26;67.01
45467;BME280;31212;49.734;8.490;2023-02-18T09:15:26;100503.19;;;12.37;67.24
45467;BME280;31212;49.734;8.490;2023-02-18T09:17:53;100504.03;;;12.45;67.10
45467;BME280;31212;49.734;8.490;2023-02-18T09:20:21;100484.97;;;12.44;66.43
45467;BME280;31212;49.734;8.490;2023-02-18T09:22:47;100466.72;;;12.44;66.54
45467;BME280;31212;49.734;8.490;2023-02-18T09:25:14;100498.88;;;12.33;66.94
45467;BME280;31212;49.734;8.490;2023-02-18T09:27:40;100511.91;;;12.30;67.03
45467;BME280;31212;49.734;8.490;2023-02-18T09:30:07;100516.22;;;12.37;67.16
45467;BME280;31212;49.734;8.490;2023-02-18T09:32:34;100491.03;;;12.42;67.18
45467;BME280;31212;49.734;8.490;2023-02-18T09:35:00;100496.22;;;12.51;67.10
45467;BME280;31212;49.734;8.490;2023-02-18T09:37:29;100487.47;;;12.61;66.62
45467;BME280;31212;49.734;8.490;2023-02-18T09:39:55;100458.81;;;12.61;66.03
45467;BME280;31212;49.734;8.490;2023-02-18T09:42:27;100482.22;;;12.75;66.20
45467;BME280;31212;49.734;8.490;2023-02-18T09:44:56;100483.88;;;12.89;66.04
45467;BME280;31212;49.734;8.490;2023-02-18T09:47:30;100467.38;;;12.94;65.51
45467;BME280;31212;49.734;8.490;2023-02-18T09:50:05;100431.75;;;12.89;65.67
45467;BME280;31212;49.734;8.490;2023-02-18T09:52:35;100417.91;;;12.85;65.04
45467;BME280;31212;49.734;8.490;2023-02-18T09:55:17;100407.47;;;12.88;65.21
45467;BME280;31212;49.734;8.490;2023-02-18T09:57:45;100392.72;;;12.84;64.91
45467;BME280;31212;49.734;8.490;2023-02-18T10:00:14;100351.09;;;12.79;64.23
45467;BME280;31212;49.734;8.490;2023-02-18T10:02:52;100356.22;;;12.87;64.20
45467;BME280;31212;49.734;8.490;2023-02-18T10:05:20;100308.44;;;12.93;63.84
45467;BME280;31212;49.734;8.490;2023-02-18T10:07:50;100310.03;;;13.06;63.42
45467;BME280;31212;49.734;8.490;2023-02-18T10:10:26;100298.59;;;13.24;62.98
45467;BME280;31212;49.734;8.490;2023-02-18T10:12:55;100219.63;;;13.15;62.04
45467;BME280;31212;49.734;8.490;2023-02-18T10:15:24;100221.47;;;13.03;62.20
45467;BME280;31212;49.734;8.490;2023-02-18T10:17:55;100265.00;;;12.92;62.72
45467;BME280;31212;49.734;8.490;2023-02-18T10:20:24;100310.28;;;12.77;63.42
45467;BME280;31212;49.734;8.490;2023-02-18T10:22:54;100325.94;;;12.71;63.60
45467;BME280;31212;49.734;8.490;2023-02-18T10:25:23;100332.09;;;12.60;63.51
45467;BME280;31212;49.734;8.490;2023-02-18T10:27:51;100340.88;;;12.47;63.86
45467;BME280;31212;49.734;8.490;2023-02-18T10:30:23;100415.50;;;12.45;64.65
45467;BME280;31212;49.734;8.490;2023-02-18T10:32:55;100414.69;;;12.32;64.58
45467;BME280;31212;49.734;8.490;2023-02-18T10:35:30;100426.00;;;12.22;64.96
45467;BME280;31212;49.734;8.490;2023-02-18T10:38:07;100440.72;;;12.35;64.96
45467;BME280;31212;49.734;8.490;2023-02-18T10:40:45;100438.88;;;12.59;64.47
45467;BME280;31212;49.734;8.490;2023-02-18T10:43:21;100390.19;;;12.73;64.00
45467;BME280;31212;49.734;8.490;2023-02-18T10:45:55;100372.81;;;12.72;63.81
45467;BME280;31212;49.734;8.490;2023-02-18T10:51:34;100308.72;;;12.48;63.06
45467;BME280;31212;49.734;8.490;2023-02-18T10:54:03;100293.94;;;12.53;63.14
45467;BME280;31212;49.734;8.490;2023-02-18T10:56:38;100281.75;;;12.58;62.67
45467;BME280;31212;49.734;8.490;2023-02-18T10:59:10;100233.53;;;13.13;61.64
45467;BME280;31212;49.734;8.490;2023-02-18T11:01:37;100162.13;;;13.27;60.46
45467;BME280;31212;49.734;8.490;2023-02-18T11:04:07;100188.44;;;13.80;60.33
45467;BME280;31212;49.734;8.490;2023-02-18T11:06:39;100118.72;;;14.41;58.93
45467;BME280;31212;49.734;8.490;2023-02-18T11:09:25;99970.31;;;15.06;56.73
45467;BME280;31212;49.734;8.490;2023-02-18T11:11:58;99908.16;;;15.88;54.42
45467;BME280;31212;49.734;8.490;2023-02-18T11:14:36;99801.44;;;16.56;52.44
45467;BME280;31212;49.734;8.490;2023-02-18T11:17:08;99815.25;;;16.61;52.06
45467;BME280;31212;49.734;8.490;2023-02-18T11:19:36;99736.13;;;16.50;51.26
45467;BME280;31212;49.734;8.490;2023-02-18T11:22:10;99707.72;;;16.37;51.05
45467;BME280;31212;49.734;8.490;2023-02-18T11:24:40;99709.00;;;16.77;50.65
45467;BME280;31212;49.734;8.490;2023-02-18T11:27:12;99704.72;;;16.21;50.91
45467;BME280;31212;49.734;8.490;2023-02-18T11:29:43;99672.06;;;15.75;51.29
45467;BME280;31212;49.734;8.490;2023-02-18T11:32:10;99777.03;;;15.66;52.08
45467;BME280;31212;49.734;8.490;2023-02-18T11:34:40;99834.03;;;15.53;52.62
45467;BME280;31212;49.734;8.490;2023-02-18T11:37:11;99833.41;;;15.76;52.44
45467;BME280;31212;49.734;8.490;2023-02-18T11:39:45;99864.22;;;15.99;52.45
45467;BME280;31212;49.734;8.490;2023-02-18T11:42:14;99796.34;;;15.60;52.10
45467;BME280;31212;49.734;8.490;2023-02-18T11:44:48;99842.56;;;15.26;53.08
45467;BME280;31212;49.734;8.490;2023-02-18T11:47:22;99878.75;;;15.07;53.50
45467;BME280;31212;49.734;8.490;2023-02-18T11:50:00;99861.81;;;14.88;53.80
45467;BME280;31212;49.734;8.490;2023-02-18T11:52:33;99903.31;;;14.61;54.43
45467;BME280;31212;49.734;8.490;2023-02-18T11:55:01;99960.84;;;14.58;54.88
45467;BME280;31212;49.734;8.490;2023-02-18T11:57:29;99966.94;;;14.58;55.19
45467;BME280;31212;49.734;8.490;2023-02-18T11:59:57;99963.34;;;14.62;54.79
45467;BME280;31212;49.734;8.490;2023-02-18T12:02:30;99933.25;;;14.44;54.64
45467;BME280;31212;49.734;8.490;2023-02-18T12:05:02;99947.91;;;14.52;54.69
45467;BME280;31212;49.734;8.490;2023-02-18T12:07:38;99927.41;;;14.32;54.66
45467;BME280;31212;49.734;8.490;2023-02-18T12:10:13;99987.91;;;14.08;55.62
45467;BME280;31212;49.734;8.490;2023-02-18T12:12:45;99989.94;;;13.91;55.97
45467;BME280;31212;49.734;8.490;2023-02-18T12:15:15;99996.25;;;13.77;56.00
45467;BME280;31212;49.734;8.490;2023-02-18T12:18:01;100014.63;;;13.71;56.28
45467;BME280;31212;49.734;8.490;2023-02-18T12:23:32;100008.22;;;13.36;56.57
45467;BME280;31212;49.734;8.490;2023-02-18T12:26:12;99981.34;;;13.29;56.50
45467;BME280;31212;49.734;8.490;2023-02-18T12:28:54;99993.47;;;13.30;56.56
45467;BME280;31212;49.734;8.490;2023-02-18T12:31:34;99999.75;;;13.19;56.93
45467;BME280;31212;49.734;8.490;2023-02-18T12:34:22;100016.47;;;13.04;57.35
45467;BME280;31212;49.734;8.490;2023-02-18T12:37:00;100048.53;;;13.10;57.85
45467;BME280;31212;49.734;8.490;2023-02-18T12:39:42;100042.66;;;12.93;57.82
45467;BME280;31212;49.734;8.490;2023-02-18T12:42:27;100054.91;;;12.83;57.83
45467;BME280;31212;49.734;8.490;2023-02-18T12:45:08;100061.81;;;12.90;57.93
45467;BME280;31212;49.734;8.490;2023-02-18T12:47:51;100087.72;;;13.00;58.25
45467;BME280;31212;49.734;8.490;2023-02-18T12:50:49;100127.69;;;13.00;58.86
45467;BME280;31212;49.734;8.490;2023-02-18T12:53:37;100119.06;;;12.93;58.74
45467;BME280;31212;49.734;8.490;2023-02-18T12:56:24;100125.09;;;12.99;58.86
45467;BME280;31212;49.734;8.490;2023-02-18T12:59:05;100131.22;;;12.96;58.88
45467;BME280;31212;49.734;8.490;2023-02-18T13:01:44;100165.88;;;13.00;59.37
45467;BME280;31212;49.734;8.490;2023-02-18T13:04:23;100164.22;;;12.97;59.43
45467;BME280;31212;49.734;8.490;2023-02-18T13:07:15;100165.94;;;12.95;59.50
45467;BME280;31212;49.734;8.490;2023-02-18T13:09:59;100187.56;;;13.05;59.64
45467;BME280;31212;49.734;8.490;2023-02-18T13:12:34;100182.41;;;13.00;59.65
45467;BME280;31212;49.734;8.490;2023-02-18T13:15:15;100139.91;;;12.95;59.33